Terminal Aerodrome Forecast
Issued by NWS Greer, SC

Home | Current Version | Previous Version | Text Only | Print | Product List | Glossary On
Versions: 1 2 3 4 5 6 7 8 9 10 11 12 13 14 15 16 17 18 19 20 21 22 23
000
FTUS42 KGSP 282327
TAFGSP
TAF
KGSP 282327Z 2900/2924 21006KT P6SM FEW045 SCT250
     FM290900 21004KT 4SM BR SCT015
      TEMPO 2909/2913 2SM BR OVC006
     FM291400 21005KT P6SM SCT020
     FM291700 20010KT P6SM SCT050=

USA.gov is the U.S. government's official web portal to all federal, state and local government web resources and services.